Time;durP1;ratioP1;P1;durP2;ratioP2;P2;SDS_P1;SDS_P2;PMS_P1;PMS_P2;Temp;Humidity;BMP_temperature;BMP_pressure;BME280_temperature;BME280_humidity;BME280_pressure;Samples;Min_cycle;Max_cycle;Signal;HPM_P1;HPM_P2
2021/05/19 00:00:15;;;;;;;1.63;0.80;;;;;;;;;;4994063;28;20186;-72
2021/05/19 00:03:19;;;;;;;2.37;0.93;;;;;;;;;;4974972;28;20218;-71
2021/05/19 00:06:23;;;;;;;0.80;0.70;;;;;;;;;;4973797;28;20187;-72
2021/05/19 00:09:28;;;;;;;1.70;1.00;;;;;;;;;;4984501;28;20193;-70
2021/05/19 00:12:32;;;;;;;1.37;0.97;;;;;;;;;;4981658;28;20238;-70
2021/05/19 00:15:36;;;;;;;2.83;1.00;;;;;;;;;;4974717;28;20191;-72
2021/05/19 00:18:40;;;;;;;2.77;1.10;;;;;;;;;;4954130;29;20191;-71
2021/05/19 00:21:45;;;;;;;1.77;0.87;;;;;;;;;;4965154;28;20222;-71
2021/05/19 00:24:49;;;;;;;1.93;1.00;;;;;;;;;;4993638;28;20182;-72
2021/05/19 00:27:55;;;;;;;1.33;0.90;;;;;;;;;;4993817;28;20190;-72
2021/05/19 00:31:02;;;;;;;1.33;0.83;;;;;;;;;;4970346;28;20194;-70
2021/05/19 00:34:07;;;;;;;2.23;0.93;;;;;;;;;;4954924;29;20209;-71
2021/05/19 00:37:11;;;;;;;1.53;0.83;;;;;;;;;;4955081;29;20184;-71
2021/05/19 00:40:16;;;;;;;1.33;0.80;;;;;;;;;;4954005;29;20535;-71
2021/05/19 00:43:22;;;;;;;1.40;1.00;;;;;;;;;;4990252;28;20214;-70
2021/05/19 00:46:27;;;;;;;2.00;0.97;;;;;;;;;;4975687;28;20221;-70
2021/05/19 00:49:31;;;;;;;1.70;1.07;;;;;;;;;;4961989;28;20195;-70
2021/05/19 00:52:46;;;;;;;6.47;1.20;;;;;;;;;;4981207;28;20230;-71
2021/05/19 00:55:50;;;;;;;1.90;1.27;;;;;;;;;;4993468;28;20190;-71
2021/05/19 00:59:00;;;;;;;2.00;1.20;;;;;;;;;;4993526;28;20529;-71
2021/05/19 01:02:04;;;;;;;2.00;1.30;;;;;;;;;;4987468;28;20226;-70
2021/05/19 01:05:25;;;;;;;1.57;1.20;;;;;;;;;;4984120;28;20186;-70
2021/05/19 01:12:16;;;;;;;1.73;1.20;;;;;;;;;;4990795;28;20238;-70
2021/05/19 01:15:20;;;;;;;1.67;1.10;;;;;;;;;;4966783;28;20536;-70
2021/05/19 01:18:24;;;;;;;1.50;1.10;;;;;;;;;;4977164;28;20175;-71
2021/05/19 01:21:29;;;;;;;1.90;1.17;;;;;;;;;;4976410;28;20199;-71
2021/05/19 01:24:34;;;;;;;1.60;1.20;;;;;;;;;;4987656;28;20541;-70
2021/05/19 01:27:38;;;;;;;2.40;0.93;;;;;;;;;;4994055;28;20190;-70
2021/05/19 01:30:43;;;;;;;1.47;1.10;;;;;;;;;;4995064;28;20182;-70
2021/05/19 01:33:49;;;;;;;2.17;1.27;;;;;;;;;;4986440;28;20190;-70
2021/05/19 01:36:53;;;;;;;2.63;1.30;;;;;;;;;;4996513;28;20625;-71
2021/05/19 01:39:57;;;;;;;1.67;1.30;;;;;;;;;;4995135;28;20198;-71
2021/05/19 01:43:03;;;;;;;3.33;1.37;;;;;;;;;;4992278;28;20217;-70
2021/05/19 01:46:31;;;;;;;1.83;1.40;;;;;;;;;;4968084;28;20524;-72
2021/05/19 01:49:39;;;;;;;1.97;1.27;;;;;;;;;;4975781;28;20638;-71
2021/05/19 01:52:44;;;;;;;4.60;1.60;;;;;;;;;;4957601;28;20232;-72
2021/05/19 01:55:48;;;;;;;1.50;1.40;;;;;;;;;;4967591;28;20187;-71
2021/05/19 01:58:55;;;;;;;3.20;1.43;;;;;;;;;;4945781;29;20524;-72
2021/05/19 02:02:00;;;;;;;4.33;1.40;;;;;;;;;;4957111;29;20215;-72
2021/05/19 02:05:11;;;;;;;1.83;1.37;;;;;;;;;;4988278;28;20194;-71
2021/05/19 02:08:15;;;;;;;1.80;1.60;;;;;;;;;;4982256;28;20202;-70
2021/05/19 02:11:23;;;;;;;1.70;1.60;;;;;;;;;;4994961;28;20178;-71
2021/05/19 02:14:28;;;;;;;3.47;1.70;;;;;;;;;;4983396;28;20190;-70
2021/05/19 02:17:33;;;;;;;2.40;1.60;;;;;;;;;;4969235;28;20206;-70
2021/05/19 02:20:38;;;;;;;2.70;1.80;;;;;;;;;;4988466;28;20210;-71
2021/05/19 02:23:42;;;;;;;2.10;1.87;;;;;;;;;;4976152;28;20178;-72
2021/05/19 02:26:46;;;;;;;2.97;1.57;;;;;;;;;;4996152;28;20194;-70
2021/05/19 02:29:55;;;;;;;6.23;1.80;;;;;;;;;;4956001;29;20179;-71
2021/05/19 02:33:07;;;;;;;2.20;1.50;;;;;;;;;;4966655;28;20223;-71
2021/05/19 02:36:11;;;;;;;2.00;1.70;;;;;;;;;;4963688;28;20195;-70
2021/05/19 02:39:16;;;;;;;5.73;1.90;;;;;;;;;;4974445;28;20187;-70
2021/05/19 02:42:24;;;;;;;2.37;1.70;;;;;;;;;;4974967;28;20223;-71
2021/05/19 02:45:30;;;;;;;1.67;1.57;;;;;;;;;;4976508;28;20183;-70
2021/05/19 02:48:34;;;;;;;2.90;1.80;;;;;;;;;;4992875;28;20194;-70
2021/05/19 02:51:38;;;;;;;2.43;1.40;;;;;;;;;;4979553;28;20223;-70
2021/05/19 02:54:43;;;;;;;1.53;1.43;;;;;;;;;;5008449;23;20233;-88
2021/05/19 02:57:47;;;;;;;5.33;1.57;;;;;;;;;;4952744;28;20642;-88
2021/05/19 03:00:51;;;;;;;1.90;1.70;;;;;;;;;;4941841;28;20187;-87
2021/05/19 03:03:55;;;;;;;3.30;1.60;;;;;;;;;;4952713;28;20183;-88
2021/05/19 03:07:00;;;;;;;4.70;2.03;;;;;;;;;;4960581;28;20217;-87
2021/05/19 03:10:05;;;;;;;1.57;1.40;;;;;;;;;;4961041;28;20182;-87
2021/05/19 03:13:09;;;;;;;4.10;1.60;;;;;;;;;;4971872;28;20677;-87
2021/05/19 03:16:13;;;;;;;2.23;1.90;;;;;;;;;;4941536;28;20179;-87
2021/05/19 03:19:17;;;;;;;2.13;1.40;;;;;;;;;;4952436;28;20187;-88
2021/05/19 03:22:23;;;;;;;3.83;1.70;;;;;;;;;;4941511;28;20179;-87
2021/05/19 03:25:29;;;;;;;4.33;1.80;;;;;;;;;;4952407;28;20218;-88
2021/05/19 03:28:35;;;;;;;2.03;1.70;;;;;;;;;;4945028;28;20209;-87
2021/05/19 03:31:43;;;;;;;3.13;1.70;;;;;;;;;;4971510;28;20206;-88
2021/05/19 03:34:48;;;;;;;2.90;2.20;;;;;;;;;;4960759;28;20565;-88
2021/05/19 03:37:55;;;;;;;3.17;2.27;;;;;;;;;;4941164;28;20179;-88
2021/05/19 03:41:03;;;;;;;3.03;2.63;;;;;;;;;;4941809;28;20202;-88
2021/05/19 03:44:08;;;;;;;4.97;2.30;;;;;;;;;;4962812;28;20545;-88
2021/05/19 03:47:12;;;;;;;2.70;2.10;;;;;;;;;;4941167;28;20187;-88
2021/05/19 03:50:18;;;;;;;4.97;3.10;;;;;;;;;;4961712;28;20197;-87
2021/05/19 03:53:22;;;;;;;4.53;2.93;;;;;;;;;;4960244;28;20214;-87
2021/05/19 03:56:32;;;;;;;4.13;3.07;;;;;;;;;;4970944;28;20182;-88
2021/05/19 03:59:39;;;;;;;5.07;2.90;;;;;;;;;;4959999;28;20183;-88
2021/05/19 04:02:49;;;;;;;3.77;3.07;;;;;;;;;;4982416;28;20177;-88
2021/05/19 04:05:57;;;;;;;7.00;4.00;;;;;;;;;;4971691;28;20213;-88
2021/05/19 04:09:06;;;;;;;3.67;3.13;;;;;;;;;;4970832;28;20178;-88
2021/05/19 04:12:12;;;;;;;3.93;3.40;;;;;;;;;;4970922;28;20665;-88
2021/05/19 04:15:18;;;;;;;6.17;3.80;;;;;;;;;;4970879;28;20217;-88
2021/05/19 04:18:22;;;;;;;6.93;3.80;;;;;;;;;;4982046;28;20649;-88
2021/05/19 04:21:26;;;;;;;6.43;3.93;;;;;;;;;;4970237;28;20206;-88
2021/05/19 04:24:30;;;;;;;5.93;4.00;;;;;;;;;;4970740;28;20217;-88
2021/05/19 04:27:35;;;;;;;5.03;3.90;;;;;;;;;;4982215;28;20202;-88
2021/05/19 04:30:39;;;;;;;7.03;4.10;;;;;;;;;;4970962;28;20186;-88
2021/05/19 04:33:43;;;;;;;4.17;3.67;;;;;;;;;;4970791;28;20214;-88
2021/05/19 04:36:48;;;;;;;4.83;4.10;;;;;;;;;;4970749;28;20190;-88
2021/05/19 04:39:53;;;;;;;5.13;4.63;;;;;;;;;;4970631;28;20182;-88
2021/05/19 04:42:57;;;;;;;7.27;4.60;;;;;;;;;;4959619;28;20183;-88
2021/05/19 04:46:02;;;;;;;5.43;4.90;;;;;;;;;;4962494;28;20699;-88
2021/05/19 04:49:07;;;;;;;8.37;5.33;;;;;;;;;;4974250;28;20197;-88
2021/05/19 04:52:11;;;;;;;5.77;4.63;;;;;;;;;;4943936;28;20187;-88
2021/05/19 04:55:14;;;;;;;6.63;4.97;;;;;;;;;;4954824;28;20230;-88
2021/05/19 04:58:19;;;;;;;6.83;5.27;;;;;;;;;;4965713;28;20179;-88
2021/05/19 05:01:24;;;;;;;6.63;5.20;;;;;;;;;;4954889;28;20179;-86
2021/05/19 05:04:29;;;;;;;14.83;10.87;;;;;;;;;;4966308;28;20284;-86
2021/05/19 05:08:24;;;;;;;7.27;6.00;;;;;;;;;;4988899;28;20189;-87
2021/05/19 05:11:53;;;;;;;12.73;10.63;;;;;;;;;;4944687;28;20175;-86
2021/05/19 05:16:01;;;;;;;6.97;6.27;;;;;;;;;;4948295;28;20229;-87
2021/05/19 05:24:04;;;;;;;9.80;6.97;;;;;;;;;;4953445;28;20198;-87
2021/05/19 05:27:08;;;;;;;6.83;6.10;;;;;;;;;;4972383;28;20641;-88
2021/05/19 05:30:14;;;;;;;9.43;5.77;;;;;;;;;;4943629;28;20646;-88
2021/05/19 05:33:18;;;;;;;6.27;5.67;;;;;;;;;;4943439;28;20206;-87
2021/05/19 05:36:22;;;;;;;7.90;5.90;;;;;;;;;;4965393;28;20182;-88
2021/05/19 05:39:26;;;;;;;7.63;5.87;;;;;;;;;;4954421;28;20195;-88
2021/05/19 05:42:32;;;;;;;6.77;6.07;;;;;;;;;;4952980;28;20553;-88
2021/05/19 05:45:37;;;;;;;7.03;5.67;;;;;;;;;;4964976;28;20563;-88
2021/05/19 05:48:42;;;;;;;7.93;6.23;;;;;;;;;;4971225;28;20206;-88
2021/05/19 05:51:47;;;;;;;8.47;5.73;;;;;;;;;;4954116;28;20290;-88
2021/05/19 05:54:51;;;;;;;7.47;6.50;;;;;;;;;;4953887;28;20234;-87
2021/05/19 05:57:55;;;;;;;8.13;6.30;;;;;;;;;;4954440;28;20198;-88
2021/05/19 06:00:59;;;;;;;6.80;6.10;;;;;;;;;;4955249;28;20195;-87
2021/05/19 06:04:03;;;;;;;7.23;6.53;;;;;;;;;;4953871;28;20179;-87
2021/05/19 06:07:08;;;;;;;7.03;6.33;;;;;;;;;;4955099;28;20187;-88
2021/05/19 06:10:17;;;;;;;8.20;5.83;;;;;;;;;;4958281;28;20198;-87
2021/05/19 06:13:22;;;;;;;6.17;5.57;;;;;;;;;;4961707;28;20206;-88
2021/05/19 06:16:28;;;;;;;5.50;5.00;;;;;;;;;;4964052;28;20194;-88
2021/05/19 06:19:32;;;;;;;10.13;5.33;;;;;;;;;;4944349;28;20631;-88
2021/05/19 06:22:36;;;;;;;7.67;5.83;;;;;;;;;;4943119;28;20218;-88
2021/05/19 06:25:41;;;;;;;5.87;5.27;;;;;;;;;;4946693;28;20221;-88
2021/05/19 06:28:48;;;;;;;7.97;5.83;;;;;;;;;;4962001;28;20186;-88
2021/05/19 06:31:52;;;;;;;6.07;5.47;;;;;;;;;;4961879;28;20186;-88
2021/05/19 06:34:57;;;;;;;7.03;5.80;;;;;;;;;;4972521;28;20234;-88
2021/05/19 06:38:01;;;;;;;8.37;6.17;;;;;;;;;;4964399;28;20554;-88
2021/05/19 06:41:06;;;;;;;9.17;5.97;;;;;;;;;;4964217;28;20186;-88
2021/05/19 06:44:10;;;;;;;8.70;5.80;;;;;;;;;;4942309;28;20219;-88
2021/05/19 06:47:14;;;;;;;9.30;6.17;;;;;;;;;;4956795;28;20657;-89
2021/05/19 06:50:19;;;;;;;6.40;5.63;;;;;;;;;;4931399;28;20183;-88
2021/05/19 06:53:23;;;;;;;7.47;5.23;;;;;;;;;;4952674;28;20206;-88
2021/05/19 06:56:28;;;;;;;6.17;5.50;;;;;;;;;;4958261;28;20202;-88
2021/05/19 06:59:33;;;;;;;6.53;5.53;;;;;;;;;;4942080;28;20187;-88
2021/05/19 07:02:38;;;;;;;7.17;5.70;;;;;;;;;;4942204;28;20203;-88
2021/05/19 07:05:42;;;;;;;6.70;5.93;;;;;;;;;;4963906;28;20222;-88
2021/05/19 07:08:47;;;;;;;7.67;6.00;;;;;;;;;;4963102;28;20179;-88
2021/05/19 07:11:54;;;;;;;6.50;5.90;;;;;;;;;;4947911;28;20190;-88
2021/05/19 07:15:01;;;;;;;7.20;5.90;;;;;;;;;;4957033;28;20234;-88
2021/05/19 07:18:08;;;;;;;6.80;5.60;;;;;;;;;;4957349;28;20194;-88
2021/05/19 07:21:14;;;;;;;6.73;6.00;;;;;;;;;;4960854;28;20178;-88
2021/05/19 07:24:18;;;;;;;7.60;6.17;;;;;;;;;;4980744;28;20697;-88
2021/05/19 07:27:22;;;;;;;7.50;6.40;;;;;;;;;;4941454;28;20186;-88
2021/05/19 07:30:27;;;;;;;7.13;6.23;;;;;;;;;;4941564;28;20178;-88
2021/05/19 07:33:34;;;;;;;8.70;7.73;;;;;;;;;;4948788;28;20391;-88
2021/05/19 07:36:42;;;;;;;9.40;6.80;;;;;;;;;;4941448;28;20187;-88
2021/05/19 07:39:46;;;;;;;10.07;6.83;;;;;;;;;;4955279;28;20538;-88
2021/05/19 07:42:50;;;;;;;7.93;6.33;;;;;;;;;;4960178;28;20189;-88
2021/05/19 07:45:55;;;;;;;9.03;6.90;;;;;;;;;;4952367;28;20210;-88
2021/05/19 07:48:59;;;;;;;7.63;6.33;;;;;;;;;;4952437;28;20183;-88
2021/05/19 07:52:03;;;;;;;9.20;6.67;;;;;;;;;;4962932;28;20558;-88
2021/05/19 07:55:12;;;;;;;7.33;6.10;;;;;;;;;;4951607;28;20226;-88
2021/05/19 07:58:19;;;;;;;7.77;6.33;;;;;;;;;;4982172;28;20649;-88
2021/05/19 08:04:44;;;;;;;6.40;5.77;;;;;;;;;;4962643;28;20211;-87
2021/05/19 08:07:48;;;;;;;9.77;6.00;;;;;;;;;;4974235;28;20190;-88
2021/05/19 08:10:52;;;;;;;6.83;5.57;;;;;;;;;;4951961;28;20187;-88
2021/05/19 08:13:57;;;;;;;8.17;5.93;;;;;;;;;;4948052;28;20676;-88
2021/05/19 08:17:02;;;;;;;6.80;6.00;;;;;;;;;;4952716;28;20190;-88
2021/05/19 08:20:07;;;;;;;5.97;5.37;;;;;;;;;;4958929;28;20194;-88
2021/05/19 08:23:12;;;;;;;7.57;5.63;;;;;;;;;;4944716;28;20198;-88
2021/05/19 08:26:15;;;;;;;8.87;5.97;;;;;;;;;;4944997;28;20175;-89
2021/05/19 08:29:21;;;;;;;7.77;5.47;;;;;;;;;;4944635;28;20179;-88
2021/05/19 08:32:26;;;;;;;5.40;4.90;;;;;;;;;;4960653;28;20534;-88
2021/05/19 08:35:30;;;;;;;5.80;5.20;;;;;;;;;;4974665;28;20226;-89
2021/05/19 08:38:37;;;;;;;6.53;4.87;;;;;;;;;;4974806;28;20182;-88
2021/05/19 08:41:49;;;;;;;5.63;4.30;;;;;;;;;;4985766;28;20179;-88
2021/05/19 08:44:55;;;;;;;5.30;4.80;;;;;;;;;;4964438;28;20218;-88
2021/05/19 08:48:05;;;;;;;6.07;4.10;;;;;;;;;;4974619;28;20186;-89
2021/05/19 08:51:09;;;;;;;6.10;4.30;;;;;;;;;;4974546;28;20183;-89
2021/05/19 08:54:17;;;;;;;5.00;4.17;;;;;;;;;;4963360;28;20565;-88
2021/05/19 08:57:22;;;;;;;4.23;3.80;;;;;;;;;;4978528;23;20230;-89
2021/05/19 09:00:28;;;;;;;5.97;3.90;;;;;;;;;;4955752;29;20179;-89
2021/05/19 09:03:43;;;;;;;4.27;3.87;;;;;;;;;;4977042;28;20183;-89
2021/05/19 09:07:09;;;;;;;4.43;3.30;;;;;;;;;;4968672;28;20261;-89
2021/05/19 09:10:18;;;;;;;4.70;4.03;;;;;;;;;;4946531;29;20191;-88
2021/05/19 09:13:54;;;;;;;5.03;3.50;;;;;;;;;;4947214;29;20188;-89
2021/05/19 09:17:23;;;;;;;3.50;3.20;;;;;;;;;;4962705;28;20231;-89
2021/05/19 09:20:42;;;;;;;3.77;3.37;;;;;;;;;;4954835;28;20629;-89
2021/05/19 09:24:41;;;;;;;3.70;3.30;;;;;;;;;;4976622;28;20587;-89
2021/05/19 09:27:48;;;;;;;4.13;3.70;;;;;;;;;;4965847;28;20179;-89
2021/05/19 09:30:52;;;;;;;4.00;3.27;;;;;;;;;;4953902;28;20187;-88
2021/05/19 09:33:59;;;;;;;3.90;3.20;;;;;;;;;;4954229;28;20211;-88
2021/05/19 09:37:22;;;;;;;3.40;2.90;;;;;;;;;;4954632;28;20218;-89
2021/05/19 09:40:27;;;;;;;4.80;2.73;;;;;;;;;;4966266;28;20646;-89
2021/05/19 09:43:32;;;;;;;3.03;2.70;;;;;;;;;;4990287;28;20183;-89
2021/05/19 09:46:46;;;;;;;7.37;3.53;;;;;;;;;;4966695;28;20218;-88
2021/05/19 09:49:56;;;;;;;5.27;3.20;;;;;;;;;;4965444;28;20199;-88
2021/05/19 09:53:06;;;;;;;3.70;3.20;;;;;;;;;;4965063;28;20183;-88
2021/05/19 09:56:10;;;;;;;4.27;3.50;;;;;;;;;;4935021;29;20227;-88
2021/05/19 09:59:21;;;;;;;4.33;3.13;;;;;;;;;;4957019;29;20183;-89
2021/05/19 10:03:29;;;;;;;3.60;3.13;;;;;;;;;;4957179;29;20180;-89
2021/05/19 10:10:21;;;;;;;5.83;3.40;;;;;;;;;;4962736;28;20202;-85
2021/05/19 10:13:30;;;;;;;3.63;3.00;;;;;;;;;;4964932;28;20519;-87
2021/05/19 10:16:36;;;;;;;2.87;2.50;;;;;;;;;;4975385;28;20222;-87
2021/05/19 10:19:50;;;;;;;4.07;2.93;;;;;;;;;;4954532;28;20183;-87
2021/05/19 10:22:54;;;;;;;9.20;2.80;;;;;;;;;;4964792;28;20187;-87
2021/05/19 10:26:09;;;;;;;2.60;2.33;;;;;;;;;;4953550;28;20210;-88
2021/05/19 10:29:33;;;;;;;3.10;2.80;;;;;;;;;;4955463;28;20187;-87
2021/05/19 10:32:38;;;;;;;3.70;2.70;;;;;;;;;;4949412;28;20199;-87
2021/05/19 10:35:43;;;;;;;2.60;2.40;;;;;;;;;;4953245;28;20230;-87
2021/05/19 10:38:47;;;;;;;4.37;3.03;;;;;;;;;;4964469;28;20638;-87
2021/05/19 10:41:54;;;;;;;3.40;3.10;;;;;;;;;;4964263;28;20183;-87
2021/05/19 10:45:07;;;;;;;3.73;3.03;;;;;;;;;;4975379;28;20627;-87
2021/05/19 10:48:27;;;;;;;3.83;2.80;;;;;;;;;;4953131;28;20542;-87
2021/05/19 10:59:01;;;;;;;4.27;2.50;;;;;;;;;;4964017;28;20523;-86
2021/05/19 11:02:05;;;;;;;5.23;2.87;;;;;;;;;;4963692;28;20186;-87
2021/05/19 11:05:12;;;;;;;12.40;3.43;;;;;;;;;;4964056;28;20179;-87
2021/05/19 11:08:19;;;;;;;4.33;2.87;;;;;;;;;;4975050;28;20190;-87
2021/05/19 11:11:28;;;;;;;6.00;2.40;;;;;;;;;;4963834;28;20650;-88
2021/05/19 11:14:36;;;;;;;5.00;2.50;;;;;;;;;;4963622;28;20210;-87
2021/05/19 11:17:56;;;;;;;4.63;2.40;;;;;;;;;;4963673;28;20539;-87
2021/05/19 11:21:03;;;;;;;3.70;2.10;;;;;;;;;;4952742;28;20191;-87
2021/05/19 11:24:12;;;;;;;4.07;2.30;;;;;;;;;;4952507;28;20630;-87
2021/05/19 11:27:21;;;;;;;3.53;2.90;;;;;;;;;;4974368;28;20223;-87
2021/05/19 11:30:27;;;;;;;3.40;2.97;;;;;;;;;;4952723;28;20198;-87
2021/05/19 11:33:57;;;;;;;17.23;3.97;;;;;;;;;;4952917;28;20182;-87
2021/05/19 11:37:06;;;;;;;3.70;2.87;;;;;;;;;;4975121;28;20214;-87
2021/05/19 11:40:12;;;;;;;5.03;2.27;;;;;;;;;;4952662;28;20227;-87
2021/05/19 11:43:23;;;;;;;3.87;2.20;;;;;;;;;;4975039;28;20198;-83
2021/05/19 11:46:40;;;;;;;2.53;2.03;;;;;;;;;;4972086;28;20210;-88
2021/05/19 11:49:45;;;;;;;3.03;2.07;;;;;;;;;;4960332;28;20200;-88
2021/05/19 11:52:58;;;;;;;4.93;2.70;;;;;;;;;;4966308;28;20183;-88
2021/05/19 11:56:05;;;;;;;3.97;2.20;;;;;;;;;;4954438;28;20235;-88
2021/05/19 11:59:18;;;;;;;3.40;2.20;;;;;;;;;;4964039;28;20649;-87
2021/05/19 12:02:25;;;;;;;3.27;2.00;;;;;;;;;;4974244;28;20190;-88
2021/05/19 12:05:55;;;;;;;4.13;2.20;;;;;;;;;;4974909;28;20175;-88
2021/05/19 12:09:00;;;;;;;17.50;3.27;;;;;;;;;;4968499;28;20638;-87
2021/05/19 12:12:12;;;;;;;4.00;2.80;;;;;;;;;;4944703;29;20186;-88
2021/05/19 12:15:16;;;;;;;4.00;2.50;;;;;;;;;;4959696;28;20215;-88
2021/05/19 12:18:21;;;;;;;4.07;3.20;;;;;;;;;;4951643;28;20191;-88
2021/05/19 12:21:26;;;;;;;6.13;3.43;;;;;;;;;;4949476;28;20187;-88
2021/05/19 12:24:30;;;;;;;7.50;4.90;;;;;;;;;;4957409;28;20195;-89
2021/05/19 12:27:34;;;;;;;6.30;4.10;;;;;;;;;;4973624;28;20214;-89
2021/05/19 12:31:08;;;;;;;7.10;3.00;;;;;;;;;;4952062;28;20539;-89
2021/05/19 12:34:15;;;;;;;3.70;2.50;;;;;;;;;;4951652;28;20198;-88
2021/05/19 12:47:41;;;;;;;4.30;3.43;;;;;;;;;;5014386;23;20240;-74
2021/05/19 12:50:51;;;;;;;20.07;11.47;;;;;;;;;;4990762;28;20533;-74
2021/05/19 12:53:56;;;;;;;7.20;4.90;;;;;;;;;;4988849;28;20193;-74
2021/05/19 12:57:03;;;;;;;13.40;7.97;;;;;;;;;;4992869;28;20210;-74
2021/05/19 13:00:11;;;;;;;4.10;3.20;;;;;;;;;;4993436;28;20190;-73
2021/05/19 13:03:34;;;;;;;7.97;4.20;;;;;;;;;;4980660;28;20226;-73
2021/05/19 13:06:39;;;;;;;5.57;4.10;;;;;;;;;;4994656;28;20210;-74
2021/05/19 13:09:46;;;;;;;3.90;3.40;;;;;;;;;;4984745;28;20202;-74
2021/05/19 13:13:09;;;;;;;7.03;3.60;;;;;;;;;;4993128;28;20217;-74
2021/05/19 13:16:32;;;;;;;4.37;2.47;;;;;;;;;;4979115;28;20206;-75
2021/05/19 13:19:38;;;;;;;5.10;3.43;;;;;;;;;;4977239;28;20203;-75
2021/05/19 13:22:55;;;;;;;6.70;3.57;;;;;;;;;;4977307;28;20219;-75
2021/05/19 13:26:06;;;;;;;1.50;1.40;;;;;;;;;;4973395;28;20191;-76
2021/05/19 13:29:17;;;;;;;3.47;2.13;;;;;;;;;;4969340;28;20194;-75
2021/05/19 13:39:15;;;;;;;1.30;1.03;;;;;;;;;;4977142;28;20199;-75
2021/05/19 13:42:20;;;;;;;1.60;1.40;;;;;;;;;;4991536;28;20222;-75
2021/05/19 13:45:25;;;;;;;1.53;1.13;;;;;;;;;;4960764;28;20175;-76
2021/05/19 13:48:30;;;;;;;1.07;0.90;;;;;;;;;;4976946;28;20199;-75
2021/05/19 13:51:34;;;;;;;0.77;0.77;;;;;;;;;;4973320;28;20571;-75
2021/05/19 13:54:45;;;;;;;3.77;2.40;;;;;;;;;;4965994;28;20207;-75
2021/05/19 13:57:49;;;;;;;2.30;1.00;;;;;;;;;;4973241;28;20179;-75
2021/05/19 14:00:54;;;;;;;2.40;1.50;;;;;;;;;;4973381;28;20203;-75
2021/05/19 14:03:59;;;;;;;2.17;1.90;;;;;;;;;;4964704;28;20195;-75
2021/05/19 14:07:03;;;;;;;4.17;1.57;;;;;;;;;;4972494;28;20202;-75
2021/05/19 14:10:08;;;;;;;13.67;8.63;;;;;;;;;;4979735;28;20191;-76
2021/05/19 14:13:13;;;;;;;14.47;8.87;;;;;;;;;;4973713;28;20254;-75
2021/05/19 14:16:50;;;;;;;3.77;2.90;;;;;;;;;;4959918;28;20704;-76
2021/05/19 14:29:50;;;;;;;2.90;2.67;;;;;;;;;;4992097;28;20182;-75
2021/05/19 14:32:54;;;;;;;4.67;3.40;;;;;;;;;;4980063;28;20213;-76
2021/05/19 15:02:48;;;;;;;4.30;3.63;;;;;;;;;;4982233;28;20230;-75
2021/05/19 15:05:52;;;;;;;3.93;2.30;;;;;;;;;;4960021;28;20175;-75
2021/05/19 15:08:58;;;;;;;6.13;5.40;;;;;;;;;;4978130;28;20190;-75
2021/05/19 15:12:03;;;;;;;7.57;5.33;;;;;;;;;;4960534;28;20226;-75
2021/05/19 15:15:11;;;;;;;11.57;9.63;;;;;;;;;;4970974;28;20183;-75
2021/05/19 15:18:14;;;;;;;5.27;3.00;;;;;;;;;;4972041;28;20668;-75
2021/05/19 15:21:19;;;;;;;2.83;0.90;;;;;;;;;;4978807;28;20629;-74
2021/05/19 15:24:23;;;;;;;3.40;1.00;;;;;;;;;;4979807;28;20198;-74
2021/05/19 15:27:27;;;;;;;1.40;0.90;;;;;;;;;;4970763;28;20187;-74
2021/05/19 15:30:32;;;;;;;1.87;0.90;;;;;;;;;;4971575;28;20183;-75
2021/05/19 15:33:36;;;;;;;1.43;0.70;;;;;;;;;;4959317;28;20218;-74
2021/05/19 15:36:42;;;;;;;2.47;0.80;;;;;;;;;;4959713;28;20210;-75
2021/05/19 15:39:47;;;;;;;1.30;0.80;;;;;;;;;;4977341;28;20190;-75
2021/05/19 15:42:52;;;;;;;2.43;0.83;;;;;;;;;;4971104;28;20214;-75
2021/05/19 15:45:58;;;;;;;2.30;0.80;;;;;;;;;;4970581;28;20681;-75
2021/05/19 15:49:04;;;;;;;1.20;0.90;;;;;;;;;;4971385;28;20207;-76
2021/05/19 15:52:08;;;;;;;2.53;0.80;;;;;;;;;;4970945;28;20563;-75
2021/05/19 15:55:13;;;;;;;0.60;0.60;;;;;;;;;;4973338;28;20194;-75
2021/05/19 15:58:17;;;;;;;0.80;0.80;;;;;;;;;;4978612;28;20182;-75
2021/05/19 16:01:21;;;;;;;0.80;0.70;;;;;;;;;;4982737;28;20526;-76
2021/05/19 16:04:27;;;;;;;1.63;0.90;;;;;;;;;;4983939;28;20187;-76
2021/05/19 16:07:31;;;;;;;3.17;0.73;;;;;;;;;;4970646;28;20186;-76
2021/05/19 16:10:36;;;;;;;3.43;0.87;;;;;;;;;;4970445;28;20531;-76
2021/05/19 16:13:40;;;;;;;1.47;0.80;;;;;;;;;;4970516;28;20183;-76
2021/05/19 16:16:45;;;;;;;3.93;1.37;;;;;;;;;;4970581;28;20203;-75
2021/05/19 16:20:05;;;;;;;2.03;1.10;;;;;;;;;;4959763;28;20202;-75
2021/05/19 16:23:09;;;;;;;1.90;0.80;;;;;;;;;;4990108;28;20225;-76
2021/05/19 16:26:13;;;;;;;2.23;1.10;;;;;;;;;;4990631;28;20173;-75
2021/05/19 16:34:16;;;;;;;3.77;1.33;;;;;;;;;;4967272;28;20865;-75
2021/05/19 16:37:21;;;;;;;9.90;1.50;;;;;;;;;;4970491;28;20211;-76
2021/05/19 16:40:28;;;;;;;2.20;1.20;;;;;;;;;;4981879;28;20194;-76
2021/05/19 16:43:34;;;;;;;0.87;0.87;;;;;;;;;;4989351;28;20218;-76
2021/05/19 16:46:41;;;;;;;1.10;0.90;;;;;;;;;;4978807;28;20202;-76
2021/05/19 16:49:45;;;;;;;1.17;1.00;;;;;;;;;;4974340;28;20190;-76
2021/05/19 16:52:50;;;;;;;2.50;1.00;;;;;;;;;;4991014;28;20221;-75
2021/05/19 16:55:55;;;;;;;1.43;1.33;;;;;;;;;;4966247;28;20195;-75
2021/05/19 16:59:00;;;;;;;1.63;1.20;;;;;;;;;;4981236;28;20171;-76
2021/05/19 17:05:12;;;;;;;4.50;1.17;;;;;;;;;;4974749;28;20187;-76
2021/05/19 17:08:16;;;;;;;1.30;1.00;;;;;;;;;;4973008;28;20179;-76
2021/05/19 17:11:20;;;;;;;2.07;1.50;;;;;;;;;;4991690;28;20194;-76
2021/05/19 17:14:26;;;;;;;3.30;1.17;;;;;;;;;;4993165;28;20526;-76
2021/05/19 17:17:31;;;;;;;1.70;1.50;;;;;;;;;;4969854;28;20214;-75
2021/05/19 17:20:36;;;;;;;2.90;1.60;;;;;;;;;;4970802;28;20199;-76
2021/05/19 17:23:40;;;;;;;4.67;1.40;;;;;;;;;;4984997;28;20190;-76
2021/05/19 17:26:45;;;;;;;1.30;1.20;;;;;;;;;;4984416;28;20190;-75
2021/05/19 17:29:49;;;;;;;2.53;1.20;;;;;;;;;;4978748;28;20201;-75
2021/05/19 17:32:54;;;;;;;5.37;1.10;;;;;;;;;;4991187;28;20217;-75
2021/05/19 17:35:58;;;;;;;1.10;1.00;;;;;;;;;;4974208;28;20210;-74
2021/05/19 17:39:03;;;;;;;1.43;0.90;;;;;;;;;;4980492;28;20175;-75
2021/05/19 17:42:08;;;;;;;1.93;0.93;;;;;;;;;;4991882;28;20214;-75
2021/05/19 17:45:13;;;;;;;1.40;0.93;;;;;;;;;;4980555;28;20194;-75
2021/05/19 17:48:17;;;;;;;1.30;1.10;;;;;;;;;;4992123;28;20175;-76
2021/05/19 17:51:23;;;;;;;1.37;0.70;;;;;;;;;;4978924;28;20194;-76
2021/05/19 17:54:26;;;;;;;1.37;0.83;;;;;;;;;;4973564;28;20187;-76
2021/05/19 17:57:31;;;;;;;1.97;1.00;;;;;;;;;;4960841;28;20206;-76
2021/05/19 18:00:35;;;;;;;2.43;0.80;;;;;;;;;;4960771;28;20191;-76
2021/05/19 18:03:41;;;;;;;3.37;0.90;;;;;;;;;;4987802;28;20642;-76
2021/05/19 18:06:48;;;;;;;2.03;1.10;;;;;;;;;;4992112;28;20182;-76
2021/05/19 18:09:58;;;;;;;2.40;0.90;;;;;;;;;;4979596;28;20205;-77
2021/05/19 18:13:03;;;;;;;1.33;0.83;;;;;;;;;;4970200;28;20221;-76
2021/05/19 18:16:07;;;;;;;1.33;1.03;;;;;;;;;;4991874;28;20633;-75
2021/05/19 18:19:16;;;;;;;3.27;1.30;;;;;;;;;;4992055;28;20174;-75
2021/05/19 18:22:20;;;;;;;1.20;0.90;;;;;;;;;;4990216;28;20218;-75
2021/05/19 18:25:24;;;;;;;1.20;0.90;;;;;;;;;;4979473;28;20190;-75
2021/05/19 18:28:31;;;;;;;4.57;1.20;;;;;;;;;;4991805;28;20198;-75
2021/05/19 18:31:49;;;;;;;1.83;0.90;;;;;;;;;;4991677;28;20218;-75
2021/05/19 18:38:21;;;;;;;1.70;1.10;;;;;;;;;;4949664;28;20222;-75
2021/05/19 18:41:27;;;;;;;2.70;1.03;;;;;;;;;;4979340;28;20210;-75
2021/05/19 18:44:31;;;;;;;1.97;0.90;;;;;;;;;;4979484;28;20669;-75
2021/05/19 18:47:36;;;;;;;1.30;1.00;;;;;;;;;;4973601;28;20214;-77
2021/05/19 18:50:40;;;;;;;3.77;1.20;;;;;;;;;;4972271;28;20202;-75
2021/05/19 18:53:44;;;;;;;1.30;1.20;;;;;;;;;;4971833;28;20191;-75
2021/05/19 18:56:49;;;;;;;2.97;1.40;;;;;;;;;;4977453;28;20205;-75
2021/05/19 18:59:53;;;;;;;1.87;1.30;;;;;;;;;;4978543;28;20194;-75
2021/05/19 19:03:04;;;;;;;3.37;1.27;;;;;;;;;;4971476;28;20227;-76
2021/05/19 19:06:10;;;;;;;1.80;1.37;;;;;;;;;;4938535;28;20198;-74
2021/05/19 19:09:18;;;;;;;1.43;1.33;;;;;;;;;;4971773;28;20190;-76
2021/05/19 19:12:23;;;;;;;1.60;1.30;;;;;;;;;;4973029;28;20693;-75
2021/05/19 19:15:29;;;;;;;3.37;1.47;;;;;;;;;;4986597;28;20187;-74
2021/05/19 19:18:34;;;;;;;1.53;1.40;;;;;;;;;;4971627;28;20214;-75
2021/05/19 19:21:38;;;;;;;1.90;1.40;;;;;;;;;;4959529;28;20226;-75
2021/05/19 19:24:43;;;;;;;2.73;1.40;;;;;;;;;;4971331;28;20199;-75
2021/05/19 19:27:46;;;;;;;1.67;1.30;;;;;;;;;;4971460;28;20195;-75
2021/05/19 19:30:51;;;;;;;1.53;1.40;;;;;;;;;;4975959;28;20202;-74
2021/05/19 19:33:55;;;;;;;1.67;1.27;;;;;;;;;;4976253;28;20186;-75
2021/05/19 19:36:59;;;;;;;1.60;1.20;;;;;;;;;;4990109;28;20202;-75
2021/05/19 19:40:05;;;;;;;1.80;1.10;;;;;;;;;;4955436;28;20220;-75
2021/05/19 19:43:11;;;;;;;1.40;1.10;;;;;;;;;;4957477;28;20574;-75
2021/05/19 19:46:15;;;;;;;1.30;1.20;;;;;;;;;;4984872;28;20214;-74
2021/05/19 19:49:20;;;;;;;1.70;0.93;;;;;;;;;;4970907;28;20175;-75
2021/05/19 19:52:26;;;;;;;2.53;1.10;;;;;;;;;;4970804;28;20984;-74
2021/05/19 19:55:30;;;;;;;1.20;1.00;;;;;;;;;;4981747;28;20197;-75
2021/05/19 19:58:35;;;;;;;3.00;1.30;;;;;;;;;;4978503;28;20206;-74
2021/05/19 20:05:19;;;;;;;1.60;1.00;;;;;;;;;;4931645;28;20192;-74
2021/05/19 20:08:23;;;;;;;1.20;0.97;;;;;;;;;;4970992;28;20198;-74
2021/05/19 20:11:29;;;;;;;1.57;1.17;;;;;;;;;;4985539;28;20205;-74
2021/05/19 20:14:34;;;;;;;2.30;1.00;;;;;;;;;;4977952;28;20542;-74